Time;durP1;ratioP1;P1;durP2;ratioP2;P2;SDS_P1;SDS_P2;PMS_P1;PMS_P2;Temp;Humidity;BMP_temperature;BMP_pressure;BME280_temperature;BME280_humidity;BME280_pressure;Samples;Min_cycle;Max_cycle;Signal;HPM_P1;HPM_P2
2023/05/24 00:00:11;;;;;;;0.30;0.30;;;11.90;99.90;;;12.12;100.00;100358.56;4946956;28;20547;-76
2023/05/24 00:02:41;;;;;;;0.22;0.22;;;11.90;99.90;;;12.07;100.00;100352.34;4942536;28;20240;-77
2023/05/24 00:05:10;;;;;;;0.30;0.30;;;;;;;12.12;100.00;100364.75;4948998;28;20273;-76
2023/05/24 00:07:37;;;;;;;0.50;0.50;;;;;;;12.13;100.00;100363.84;4943693;28;20598;-77
2023/05/24 00:10:06;;;;;;;0.40;0.40;;;11.90;99.90;;;12.21;100.00;100374.47;4945492;28;20230;-76
2023/05/24 00:12:34;;;;;;;0.40;0.40;;;;;;;12.07;100.00;100365.63;4950122;28;20245;-76
2023/05/24 00:15:01;;;;;;;0.50;0.50;;;;;;;11.93;100.00;100349.69;4941447;28;20242;-76
2023/05/24 00:17:29;;;;;;;0.57;0.57;;;;;;;12.06;100.00;100372.69;4941311;28;20246;-77
2023/05/24 00:19:57;;;;;;;0.55;0.55;;;;;;;12.07;100.00;100369.16;4948047;28;20245;-77
2023/05/24 00:22:24;;;;;;;0.30;0.30;;;;;;;12.06;100.00;100361.19;4944443;28;20304;-77
2023/05/24 00:24:52;;;;;;;0.50;0.50;;;;;;;12.08;100.00;100368.25;4948904;28;20242;-77
2023/05/24 00:27:19;;;;;;;0.50;0.50;;;;;;;12.13;100.00;100368.28;4943546;28;20253;-77
2023/05/24 00:29:47;;;;;;;0.30;0.30;;;;;;;12.10;100.00;100360.31;4948606;28;20234;-77
2023/05/24 00:32:14;;;;;;;0.30;0.30;;;12.00;99.90;;;12.17;100.00;100378.88;4953119;28;20241;-77
2023/05/24 00:34:41;;;;;;;0.40;0.40;;;;;;;12.09;100.00;100377.09;4949133;28;20238;-77
2023/05/24 00:37:09;;;;;;;0.35;0.35;;;;;;;12.05;100.00;100368.25;4951968;28;20335;-77
2023/05/24 00:39:36;;;;;;;0.35;0.35;;;;;;;12.18;100.00;100372.69;4946969;28;20240;-77
2023/05/24 00:42:04;;;;;;;0.40;0.40;;;;;;;12.09;100.00;100363.84;4947328;28;20241;-78
2023/05/24 00:44:31;;;;;;;0.50;0.50;;;;;;;12.21;100.00;100366.50;4946598;28;20241;-77
2023/05/24 00:46:59;;;;;;;0.45;0.45;;;11.90;99.90;;;12.16;100.00;100363.84;4947184;28;20237;-77
2023/05/24 00:49:27;;;;;;;0.30;0.30;;;12.00;99.90;;;12.17;100.00;100365.63;4946517;29;20317;-77
2023/05/24 00:51:54;;;;;;;0.40;0.40;;;;;;;12.19;100.00;100362.97;4959139;23;20226;-76
2023/05/24 00:54:23;;;;;;;0.30;0.30;;;;;;;12.07;100.00;100352.34;4941251;29;20237;-73
2023/05/24 00:56:50;;;;;;;0.22;0.22;;;;;;;12.15;100.00;100362.09;4942456;28;20238;-75
2023/05/24 00:59:17;;;;;;;0.22;0.22;;;;;;;12.06;100.00;100348.81;4942872;28;20242;-74
2023/05/24 01:01:45;;;;;;;0.20;0.20;;;;;;;11.94;100.00;100343.50;4928241;29;20242;-74
2023/05/24 01:04:13;;;;;;;0.52;0.52;;;;;;;12.01;100.00;100347.03;4926112;28;20266;-74
2023/05/24 01:07:11;;;;;;;0.40;0.40;;;11.80;99.90;;;12.04;100.00;100352.34;4930213;29;20695;-73
2023/05/24 01:09:57;;;;;;;0.38;0.38;;;11.80;99.90;;;12.01;100.00;100353.22;4926752;29;20242;-73
2023/05/24 01:13:08;;;;;;;0.30;0.30;;;11.70;99.90;;;11.77;100.00;100335.50;4910682;29;20245;-73
2023/05/24 01:16:00;;;;;;;0.30;0.30;;;11.50;99.90;;;11.76;100.00;100340.78;4924272;28;20285;-73
2023/05/24 01:18:34;;;;;;;0.30;0.30;;;11.50;99.90;;;11.70;100.00;100341.66;4928351;29;20274;-73
2023/05/24 01:21:37;;;;;;;0.70;0.70;;;11.50;99.90;;;11.81;100.00;100352.31;4915990;28;20257;-73
2023/05/24 01:24:45;;;;;;;0.30;0.30;;;11.30;99.90;;;11.72;100.00;100350.47;4934596;28;20743;-75
2023/05/24 01:27:14;;;;;;;0.30;0.30;;;11.40;99.90;;;11.63;100.00;100346.88;4925895;28;20234;-77
2023/05/24 01:29:42;;;;;;;0.40;0.40;;;;;;;11.69;100.00;100357.50;4928865;29;20859;-76
2023/05/24 01:32:09;;;;;;;0.40;0.40;;;11.40;99.90;;;11.49;100.00;100350.38;4944265;28;20235;-74
2023/05/24 01:34:37;;;;;;;0.35;0.35;;;;;;;11.66;100.00;100360.13;4922463;28;20237;-75
2023/05/24 01:37:05;;;;;;;0.40;0.40;;;;;;;11.51;100.00;100358.31;4927556;28;20241;-73
2023/05/24 01:39:32;;;;;;;0.30;0.30;;;;;;;11.60;100.00;100358.34;4916831;29;20322;-74
2023/05/24 01:42:25;;;;;;;0.30;0.30;;;11.30;99.90;;;11.51;100.00;100339.78;4925669;28;20266;-73
2023/05/24 01:45:07;;;;;;;0.60;0.60;;;11.30;99.90;;;11.55;100.00;100358.34;4930010;29;20235;-74
2023/05/24 01:47:54;;;;;;;0.30;0.30;;;11.30;99.90;;;11.54;100.00;100358.34;4916284;29;20238;-73
2023/05/24 01:53:08;;;;;;;0.40;0.40;;;11.20;99.90;;;11.34;100.00;100346.78;4921212;29;20328;-78
2023/05/24 01:55:36;;;;;;;0.40;0.40;;;11.10;99.90;;;11.52;100.00;100368.91;4910035;29;20234;-78
2023/05/24 01:58:05;;;;;;;0.40;0.40;;;11.10;99.90;;;11.41;100.00;100368.00;4919386;29;20227;-78
2023/05/24 02:00:33;;;;;;;0.30;0.30;;;11.30;99.90;;;11.51;100.00;100390.09;4922227;29;20238;-78
2023/05/24 02:03:02;;;;;;;0.40;0.40;;;;;;;11.24;100.00;100367.03;4922154;29;20246;-78
2023/05/24 02:05:32;;;;;;;0.40;0.40;;;11.10;99.90;;;11.32;100.00;100375.88;4966071;28;20246;-78
2023/05/24 02:07:59;;;;;;;0.50;0.50;;;;;;;11.38;100.00;100393.56;4925889;29;20234;-77
2023/05/24 02:10:27;;;;;;;0.60;0.60;;;;;;;11.33;100.00;100382.06;4927343;28;20238;-77
2023/05/24 02:12:55;;;;;;;0.70;0.70;;;;;;;11.31;100.00;100378.53;4932716;29;20721;-78
2023/05/24 02:15:22;;;;;;;0.80;0.80;;;11.10;99.90;;;11.18;100.00;100365.22;4925970;28;20239;-77
2023/05/24 02:17:53;;;;;;;0.70;0.70;;;;;;;11.19;100.00;100366.13;4931090;29;20243;-77
2023/05/24 02:20:21;;;;;;;0.60;0.60;;;;;;;11.15;100.00;100365.22;4927043;28;20258;-80
2023/05/24 02:22:49;;;;;;;0.70;0.70;;;;;;;11.05;100.00;100360.75;4931382;29;20662;-77
2023/05/24 02:25:16;;;;;;;0.50;0.50;;;;;;;11.21;100.00;100377.59;4919744;29;21279;-77
2023/05/24 02:27:45;;;;;;;0.30;0.30;;;;;;;11.10;100.00;100366.94;4926445;29;20245;-79
2023/05/24 02:30:13;;;;;;;0.40;0.40;;;;;;;11.11;100.00;100374.00;4929899;29;20250;-79
2023/05/24 02:32:40;;;;;;;0.25;0.25;;;;;;;11.11;100.00;100375.78;4928838;28;20243;-78
2023/05/24 02:35:08;;;;;;;0.30;0.30;;;;;;;11.06;100.00;100372.22;4929851;28;20245;-79
2023/05/24 02:37:35;;;;;;;0.30;0.30;;;;;;;11.12;100.00;100380.19;4930931;28;20298;-78
2023/05/24 02:40:04;;;;;;;0.38;0.38;;;;;;;11.07;100.00;100384.56;4928114;29;20234;-77
2023/05/24 02:42:31;;;;;;;0.30;0.30;;;;;;;10.96;100.00;100380.97;4920837;29;20703;-77
2023/05/24 02:44:59;;;;;;;0.40;0.40;;;;;;;11.08;100.00;100396.94;4928121;29;20615;-77
2023/05/24 02:47:26;;;;;;;0.30;0.30;;;;;;;10.97;100.00;100394.22;4914728;29;20326;-77
2023/05/24 02:49:54;;;;;;;0.65;0.65;;;;;;;10.96;100.00;100386.25;4926915;28;20230;-76
2023/05/24 02:52:22;;;;;;;0.25;0.25;;;;;;;10.95;100.00;100387.13;4950061;23;20237;-75
2023/05/24 02:54:50;;;;;;;0.30;0.30;;;;;;;10.99;100.00;100391.56;4941861;28;20245;-75
2023/05/24 02:57:17;;;;;;;0.20;0.20;;;;;;;10.94;100.00;100402.13;4944113;28;20244;-75
2023/05/24 02:59:45;;;;;;;0.20;0.20;;;;;;;10.96;100.00;100403.03;4942307;28;20250;-75
2023/05/24 03:02:12;;;;;;;0.50;0.50;;;;;;;10.84;100.00;100395.88;4942677;28;20233;-73
2023/05/24 03:04:46;;;;;;;0.45;0.45;;;10.60;99.90;;;10.69;100.00;100376.38;4943240;28;20239;-73
2023/05/24 03:07:14;;;;;;;0.80;0.50;;;;;;;10.88;100.00;100388.84;4933407;28;20272;-72
2023/05/24 03:09:43;;;;;;;0.40;0.40;;;;;;;10.78;100.00;100371.16;4945816;28;20265;-72
2023/05/24 03:12:11;;;;;;;0.55;0.50;;;;;;;10.73;100.00;100379.06;4945910;28;20238;-73
2023/05/24 03:14:39;;;;;;;0.20;0.20;;;;;;;10.90;100.00;100390.63;4946986;28;20239;-73
2023/05/24 03:17:07;;;;;;;0.30;0.30;;;;;;;10.84;100.00;100393.25;4944517;28;20503;-75
2023/05/24 03:19:34;;;;;;;0.30;0.30;;;;;;;10.70;100.00;100383.44;4949710;28;20248;-74
2023/05/24 03:22:02;;;;;;;0.30;0.30;;;;;;;10.82;100.00;100389.69;4946342;29;20270;-75
2023/05/24 03:24:30;;;;;;;0.30;0.30;;;;;;;10.71;100.00;100393.13;4945852;28;20253;-75
2023/05/24 03:26:58;;;;;;;0.20;0.20;;;10.50;99.90;;;10.68;100.00;100396.66;4951524;28;20238;-75
2023/05/24 03:29:25;;;;;;;0.30;0.30;;;13.80;99.90;;;10.73;100.00;100394.03;4934428;29;20237;-75
2023/05/24 03:31:53;;;;;;;0.30;0.30;;;;;;;10.71;100.00;100393.13;4947869;28;20244;-74
2023/05/24 03:34:20;;;;;;;0.20;0.20;;;;;;;10.71;100.00;100401.06;4943210;28;20238;-75
2023/05/24 03:36:48;;;;;;;0.30;0.30;;;;;;;10.68;100.00;100407.22;4951766;28;20244;-75
2023/05/24 03:39:15;;;;;;;0.35;0.35;;;10.30;99.90;;;10.65;100.00;100415.13;4951372;28;20238;-74
2023/05/24 03:41:42;;;;;;;0.30;0.30;;;;;;;10.55;100.00;100411.53;4939670;28;20234;-75
2023/05/24 03:44:10;;;;;;;0.30;0.30;;;;;;;10.63;100.00;100424.81;4932836;28;20243;-75
2023/05/24 03:46:37;;;;;;;0.30;0.30;;;;;;;10.66;100.00;100430.13;4937496;28;20238;-75
2023/05/24 03:49:06;;;;;;;0.30;0.30;;;10.40;99.90;;;10.53;100.00;100430.91;4932371;29;20266;-75
2023/05/24 03:51:35;;;;;;;0.30;0.30;;;;;;;10.60;100.00;100439.78;5032118;23;20673;-77
2023/05/24 03:54:02;;;;;;;0.30;0.30;;;;;;;10.60;100.00;100443.31;4947568;28;20813;-79
2023/05/24 03:56:29;;;;;;;0.50;0.40;;;;;;;10.42;100.00;100438.72;4952227;28;20241;-79
2023/05/24 03:58:59;;;;;;;0.30;0.30;;;;;;;10.56;100.00;100447.66;4939041;28;20250;-78
2023/05/24 04:01:27;;;;;;;0.30;0.30;;;;;;;10.55;100.00;100455.59;4935636;28;20258;-78
2023/05/24 04:04:02;;;;;;;0.28;0.28;;;;;;;10.67;100.00;100478.63;4932581;29;20308;-78
2023/05/24 04:06:29;;;;;;;0.55;0.50;;;;;;;10.63;100.00;100484.75;4949420;28;20327;-76
2023/05/24 04:08:58;;;;;;;0.35;0.35;;;10.40;99.90;;;10.60;100.00;100471.50;4938019;29;20246;-77
2023/05/24 04:11:27;;;;;;;0.30;0.30;;;;;;;10.50;100.00;100482.00;4932659;29;20242;-77
2023/05/24 04:13:56;;;;;;;0.20;0.20;;;;;;;10.47;100.00;100467.84;4943320;28;20245;-77
2023/05/24 04:16:24;;;;;;;0.30;0.30;;;;;;;10.44;100.00;100465.19;4939445;28;20242;-77
2023/05/24 04:18:53;;;;;;;0.30;0.30;;;;;;;10.53;100.00;100475.84;4936410;28;20317;-77
2023/05/24 04:21:21;;;;;;;0.30;0.30;;;;;;;10.54;100.00;100470.56;4946337;28;20244;-76
2023/05/24 04:23:48;;;;;;;0.30;0.30;;;;;;;10.56;100.00;100471.47;4950909;29;20250;-76
2023/05/24 04:26:16;;;;;;;0.30;0.30;;;;;;;10.59;100.00;100462.69;4935817;29;20249;-77
2023/05/24 04:28:47;;;;;;;0.45;0.45;;;;;;;10.33;100.00;100451.81;4940722;28;20237;-76
2023/05/24 04:31:19;;;;;;;0.30;0.30;;;10.70;99.90;;;10.37;100.00;100445.69;4938448;28;20244;-76
2023/05/24 04:33:46;;;;;;;0.40;0.40;;;;;;;10.49;100.00;100458.19;4947912;28;20699;-77
2023/05/24 04:36:14;;;;;;;0.20;0.20;;;;;;;10.34;100.00;100448.31;4937918;28;20238;-77
2023/05/24 04:38:44;;;;;;;0.20;0.20;;;;;;;10.24;100.00;100454.38;4945495;28;20246;-77
2023/05/24 04:41:12;;;;;;;0.35;0.35;;;;;;;10.24;100.00;100451.72;4932782;28;20237;-76
2023/05/24 04:43:40;;;;;;;0.20;0.20;;;;;;;10.34;100.00;100458.88;4942756;28;20238;-76
2023/05/24 04:46:07;;;;;;;0.30;0.30;;;;;;;10.40;100.00;100463.34;4946655;28;20241;-75
2023/05/24 04:48:35;;;;;;;0.20;0.20;;;;;;;10.31;100.00;100450.91;4947529;28;20238;-75
2023/05/24 04:51:03;;;;;;;0.15;0.15;;;;;;;10.35;100.00;100460.66;4946069;29;20318;-76
2023/05/24 04:53:31;;;;;;;0.30;0.30;;;;;;;10.47;100.00;100489.00;4946788;28;20236;-76
2023/05/24 04:55:59;;;;;;;0.50;0.50;;;;;;;10.41;100.00;100481.00;4952679;28;20233;-77
2023/05/24 04:58:26;;;;;;;0.32;0.32;;;;;;;10.33;100.00;100477.38;4946350;28;20244;-77
2023/05/24 05:00:54;;;;;;;0.30;0.30;;;;;;;10.31;100.00;100474.72;4945694;28;20241;-78
2023/05/24 05:03:21;;;;;;;0.20;0.20;;;;;;;10.26;100.00;100471.13;4941910;28;20241;-78
2023/05/24 05:05:49;;;;;;;0.25;0.25;;;;;;;10.33;100.00;100475.59;4948614;28;20674;-75
2023/05/24 05:08:16;;;;;;;0.35;0.35;;;;;;;10.38;100.00;100467.72;4947272;28;20230;-76
2023/05/24 05:10:44;;;;;;;0.30;0.30;;;;;;;10.43;100.00;100477.50;4944253;28;20260;-75
2023/05/24 05:13:11;;;;;;;0.40;0.40;;;;;;;10.33;100.00;100477.38;4946148;28;20234;-76
2023/05/24 05:15:39;;;;;;;0.40;0.40;;;;;;;10.25;100.00;100478.16;4943349;28;20227;-75
2023/05/24 05:18:09;;;;;;;0.30;0.30;;;;;;;10.26;100.00;100487.00;4942052;28;20341;-78
2023/05/24 05:20:36;;;;;;;0.30;0.30;;;;;;;10.15;100.00;100473.63;4947037;28;20264;-79
2023/05/24 05:23:04;;;;;;;0.38;0.38;;;;;;;10.19;100.00;100475.44;4949829;29;20248;-78
2023/05/24 05:25:31;;;;;;;0.30;0.30;;;;;;;10.34;100.00;100482.66;4953299;28;20238;-80
2023/05/24 05:27:59;;;;;;;0.13;0.13;;;;;;;10.42;100.00;100488.97;4952100;28;20753;-78
2023/05/24 05:30:27;;;;;;;0.30;0.30;;;;;;;10.60;100.00;100506.75;4938883;28;20257;-78
2023/05/24 05:32:54;;;;;;;0.20;0.20;;;;;;;10.56;100.00;100492.63;4944849;28;20250;-78
2023/05/24 05:35:22;;;;;;;0.30;0.30;;;;;;;10.68;100.00;100490.97;4957924;28;20234;-78
2023/05/24 05:37:49;;;;;;;0.30;0.30;;;;;;;10.73;100.00;100492.78;4937795;29;20249;-77
2023/05/24 05:40:17;;;;;;;0.20;0.20;;;;;;;10.80;100.00;100497.25;4944570;28;20647;-77
2023/05/24 05:42:46;;;;;;;0.28;0.28;;;;;;;10.87;100.00;100493.78;4940340;28;20239;-80
2023/05/24 05:45:13;;;;;;;0.30;0.30;;;;;;;10.90;100.00;100470.00;4952304;28;20234;-76
2023/05/24 05:47:42;;;;;;;0.20;0.20;;;;;;;10.99;100.00;100466.56;4946724;28;20237;-77
2023/05/24 05:50:09;;;;;;;0.10;0.10;;;;;;;11.09;100.00;100449.88;4941504;28;20254;-78
2023/05/24 05:52:37;;;;;;;0.25;0.25;;;;;;;11.09;100.00;100434.00;4960490;23;20269;-75
2023/05/24 05:55:05;;;;;;;0.10;0.10;;;;;;;11.12;100.00;100422.53;4950900;28;20237;-76
2023/05/24 05:57:32;;;;;;;0.60;0.60;;;;;;;11.08;100.00;100423.38;4946283;28;20242;-76
2023/05/24 06:00:00;;;;;;;0.30;0.30;;;;;;;11.33;100.00;100427.06;4928830;29;20241;-75
2023/05/24 06:02:28;;;;;;;0.20;0.20;;;;;;;11.22;100.00;100417.31;4951441;28;20300;-75
2023/05/24 06:04:55;;;;;;;0.20;0.20;;;;;;;11.12;100.00;100398.72;4942271;29;20261;-75
2023/05/24 06:07:23;;;;;;;0.40;0.40;;;;;;;11.34;100.00;100403.25;4932950;29;20235;-73
2023/05/24 06:09:50;;;;;;;0.30;0.30;;;;;;;11.35;100.00;100401.50;4935581;29;20246;-74
2023/05/24 06:12:18;;;;;;;0.20;0.20;;;;;;;11.27;100.00;100390.88;4955451;28;20241;-74
2023/05/24 06:14:47;;;;;;;0.20;0.20;;;;;;;11.26;100.00;100383.81;4953164;28;20293;-75
2023/05/24 06:17:14;;;;;;;0.20;0.20;;;;;;;11.38;100.00;100369.75;4946981;28;20289;-74
2023/05/24 06:19:42;;;;;;;0.20;0.20;;;;;;;11.52;100.00;100379.50;4940854;28;20237;-73
2023/05/24 06:22:11;;;;;;;0.10;0.10;;;;;;;11.41;100.00;100364.47;4953097;28;20248;-73
2023/05/24 06:24:38;;;;;;;0.20;0.20;;;;;;;11.30;100.00;100340.56;4923466;29;20238;-74
2023/05/24 06:27:06;;;;;;;0.20;0.20;;;;;;;11.53;100.00;100377.75;4944127;28;20229;-74
2023/05/24 06:29:34;;;;;;;0.30;0.30;;;;;;;11.59;100.00;100361.88;4942828;28;20238;-76
2023/05/24 06:32:02;;;;;;;0.30;0.30;;;;;;;11.69;100.00;100365.44;4941687;28;20273;-75
2023/05/24 06:34:29;;;;;;;0.20;0.20;;;;;;;11.59;100.00;100359.22;4948499;28;20320;-76
2023/05/24 06:36:58;;;;;;;0.30;0.30;;;;;;;11.70;100.00;100362.84;4948487;28;20615;-75
2023/05/24 06:39:27;;;;;;;0.30;0.30;;;;;;;11.97;100.00;100379.72;4933458;29;20238;-76
2023/05/24 06:41:55;;;;;;;0.30;0.30;;;;;;;11.57;100.00;100331.84;4933942;29;20246;-76
2023/05/24 06:44:29;;;;;;;0.30;0.30;;;;;;;12.04;100.00;100366.50;4945684;28;20228;-76
2023/05/24 06:46:56;;;;;;;0.20;0.20;;;;;;;12.08;100.00;100348.81;4950869;28;20269;-75
2023/05/24 06:49:24;;;;;;;0.30;0.30;;;;;;;12.24;100.00;100332.06;4944259;28;20316;-76
2023/05/24 06:51:51;;;;;;;0.38;0.38;;;;;;;12.24;100.00;100284.31;4965983;23;20237;-81
2023/05/24 06:54:19;;;;;;;0.38;0.38;;;11.90;99.90;;;12.11;100.00;100256.94;4949498;28;20242;-79
2023/05/24 06:56:46;;;;;;;0.40;0.40;;;;;;;12.27;100.00;100281.69;4948541;28;20251;-80
2023/05/24 06:59:14;;;;;;;0.38;0.38;;;;;;;12.21;100.00;100265.78;4944948;28;20230;-79
2023/05/24 07:01:42;;;;;;;0.30;0.30;;;;;;;12.20;100.00;100232.19;4942114;28;20238;-80
2023/05/24 07:04:09;;;;;;;0.22;0.22;;;;;;;12.18;100.00;100183.59;4954573;28;20534;-80
2023/05/24 07:06:38;;;;;;;0.50;0.50;;;;;;;12.04;100.00;100137.66;4951109;28;20238;-78
2023/05/24 07:09:05;;;;;;;0.20;0.20;;;;;;;12.23;100.00;100127.91;4945503;28;20242;-78
2023/05/24 07:11:33;;;;;;;0.55;0.52;;;;;;;12.46;100.00;100182.66;4950318;28;20241;-78
2023/05/24 07:14:01;;;;;;;0.30;0.30;;;;;;;12.49;100.00;100172.03;4950893;28;20249;-78
2023/05/24 07:16:28;;;;;;;0.40;0.40;;;;;;;12.30;100.00;100132.31;4951199;28;20238;-77
2023/05/24 07:18:57;;;;;;;0.30;0.30;;;;;;;12.47;100.00;100127.84;4944836;28;20242;-79
2023/05/24 07:21:24;;;;;;;0.40;0.40;;;;;;;12.65;100.00;100151.63;4953655;28;20299;-78
2023/05/24 07:23:52;;;;;;;0.40;0.40;;;;;;;12.65;100.00;100122.44;4944794;28;20264;-77
2023/05/24 07:26:19;;;;;;;2.30;1.30;;;;;;;12.63;100.00;100051.72;4941799;28;20234;-78
2023/05/24 07:28:47;;;;;;;0.20;0.20;;;;;;;12.87;100.00;100072.81;4942792;28;20245;-79
2023/05/24 07:31:15;;;;;;;0.60;0.60;;;;;;;13.02;100.00;100053.28;4954395;28;20233;-78
2023/05/24 07:33:42;;;;;;;0.30;0.30;;;;;;;13.05;100.00;100030.25;4958706;28;20232;-79
2023/05/24 07:36:10;;;;;;;0.30;0.30;;;;;;;13.00;100.00;100025.84;4952506;28;20242;-78
2023/05/24 07:38:37;;;;;;;0.20;0.20;;;;;;;13.06;100.00;100018.75;4950305;28;20245;-78
2023/05/24 07:41:06;;;;;;;0.30;0.30;;;12.90;99.90;;;13.13;100.00;99991.25;4958868;28;20242;-79
2023/05/24 07:43:33;;;;;;;0.13;0.13;;;;;;;13.04;100.00;99954.16;4949115;28;20241;-78
2023/05/24 07:46:01;;;;;;;0.20;0.20;;;;;;;12.97;100.00;99986.03;4949170;28;20248;-79
2023/05/24 07:48:29;;;;;;;0.30;0.30;;;;;;;13.17;100.00;100028.44;4952533;28;20222;-79
2023/05/24 07:50:56;;;;;;;0.20;0.20;;;;;;;13.39;100.00;100057.44;4959695;28;20237;-79
2023/05/24 07:53:24;;;;;;;0.20;0.20;;;;;;;13.68;100.00;100051.88;4941863;28;20234;-79
2023/05/24 07:55:51;;;;;;;0.30;0.30;;;;;;;13.46;100.00;99997.19;4958472;28;20260;-79
2023/05/24 07:58:19;;;;;;;0.20;0.20;;;;;;;13.81;100.00;100017.19;4947300;28;20234;-79
2023/05/24 08:00:46;;;;;;;0.20;0.20;;;;;;;13.39;100.00;99918.47;4949092;28;20245;-78
2023/05/24 08:03:14;;;;;;;0.30;0.30;;;;;;;13.32;100.00;99850.38;4954097;28;20233;-78
2023/05/24 08:05:42;;;;;;;0.30;0.30;;;;;;;13.54;100.00;99816.47;4955175;28;20245;-79
2023/05/24 08:08:10;;;;;;;0.30;0.30;;;;;;;13.12;100.00;99707.22;4951709;28;20234;-78
2023/05/24 08:10:38;;;;;;;0.20;0.20;;;;;;;13.44;100.00;99720.97;4953008;28;20242;-78
2023/05/24 08:13:05;;;;;;;0.32;0.32;;;;;;;13.64;100.00;99731.31;4949987;28;20242;-78
2023/05/24 08:15:33;;;;;;;0.20;0.20;;;;;;;13.91;100.00;99703.41;4938281;28;20234;-79
2023/05/24 08:18:00;;;;;;;0.30;0.30;;;;;;;13.86;100.00;99659.22;4943564;28;20312;-78
2023/05/24 08:20:27;;;;;;;0.30;0.30;;;;;;;13.97;100.00;99618.25;4946620;28;20226;-78
2023/05/24 08:22:55;;;;;;;0.20;0.20;;;;;;;14.09;100.00;99577.28;4951994;28;20241;-80
2023/05/24 08:25:23;;;;;;;0.10;0.10;;;14.10;99.90;;;14.24;100.00;99614.22;4950285;28;20234;-79
2023/05/24 08:27:51;;;;;;;0.10;0.10;;;;;;;14.03;100.00;99510.94;4957738;28;20752;-78
2023/05/24 08:30:18;;;;;;;0.10;0.10;;;;;;;14.16;100.00;99429.16;4948222;28;20250;-79
2023/05/24 08:32:46;;;;;;;0.00;0.00;;;;;;;14.38;100.00;99516.44;4954094;28;20238;-79
2023/05/24 08:35:14;;;;;;;1.52;1.42;;;;;;;14.23;100.00;99438.75;4960569;28;20233;-79
2023/05/24 08:37:47;;;;;;;0.10;0.10;;;;;;;14.17;100.00;99490.28;4951737;28;20249;-80
2023/05/24 08:40:15;;;;;;;0.15;0.15;;;;;;;14.51;100.00;99519.75;4955662;28;20237;-79
2023/05/24 08:42:45;;;;;;;0.10;0.10;;;14.30;99.90;;;14.45;100.00;99471.13;4958728;28;20233;-78
2023/05/24 08:45:14;;;;;;;0.00;0.00;;;14.20;99.90;;;14.50;100.00;99439.97;4954184;28;20234;-81
2023/05/24 08:47:42;;;;;;;0.10;0.10;;;;;;;14.58;100.00;99545.31;4951224;28;20236;-80
2023/05/24 08:50:11;;;;;;;0.10;0.10;;;;;;;14.81;100.00;99606.03;4956933;28;20317;-80
2023/05/24 08:52:41;;;;;;;0.03;0.03;;;14.80;99.90;;;14.93;100.00;99563.19;4957137;28;20250;-80
2023/05/24 08:55:10;;;;;;;0.10;0.10;;;14.70;99.90;;;14.88;100.00;99502.97;4957749;28;20288;-79
2023/05/24 08:57:39;;;;;;;0.00;0.00;;;;;;;15.02;100.00;99544.31;4956665;28;20316;-80
2023/05/24 09:00:11;;;;;;;0.10;0.10;;;14.70;99.90;;;14.95;100.00;99435.34;4957550;28;20245;-81
2023/05/24 09:02:41;;;;;;;0.10;0.10;;;14.80;99.90;;;14.95;100.00;99404.28;4954869;28;20256;-79
2023/05/24 09:05:15;;;;;;;0.10;0.10;;;15.00;99.90;;;15.30;100.00;99503.72;4956326;28;20245;-80
2023/05/24 09:07:45;;;;;;;0.10;0.10;;;15.10;99.90;;;15.31;100.00;99423.78;4955245;28;20753;-79
2023/05/24 09:10:12;;;;;;;0.38;0.22;;;;;;;15.43;100.00;99374.63;4953314;28;20257;-79
2023/05/24 09:12:44;;;;;;;0.05;0.05;;;15.00;99.90;;;14.94;100.00;99265.91;4952624;28;20245;-79
2023/05/24 09:15:15;;;;;;;0.10;0.10;;;;;;;14.94;100.00;99244.59;4954844;28;20243;-79
2023/05/24 09:17:43;;;;;;;0.22;0.22;;;;;;;15.05;100.00;99219.44;4953916;28;20242;-78
2023/05/24 09:20:12;;;;;;;0.03;0.03;;;15.10;99.90;;;15.46;100.00;99323.03;4967421;28;20265;-79
2023/05/24 09:22:41;;;;;;;0.10;0.10;;;15.20;99.90;;;15.47;100.00;99234.19;4945348;29;20237;-78
2023/05/24 09:25:12;;;;;;;0.17;0.17;;;15.10;99.90;;;15.33;100.00;99256.78;4950141;28;20246;-78
2023/05/24 09:27:40;;;;;;;0.10;0.10;;;;;;;15.17;100.00;99235.97;4953718;28;20323;-78
2023/05/24 09:30:09;;;;;;;0.10;0.10;;;15.30;99.90;;;15.61;100.00;99309.34;4958802;28;20236;-80
2023/05/24 09:32:37;;;;;;;0.10;0.10;;;;;;;15.79;100.00;99399.41;4964193;28;20241;-80
2023/05/24 09:35:08;;;;;;;0.10;0.10;;;15.80;99.90;;;16.00;100.00;99462.78;4961040;28;20242;-82
2023/05/24 09:37:56;;;;;;;0.10;0.10;;;16.00;99.90;;;15.85;100.00;99387.72;4956751;28;20301;-81
2023/05/24 09:40:23;;;;;;;1.45;0.90;;;;;;;15.62;100.00;99208.03;4951171;28;20246;-79
2023/05/24 09:43:08;;;;;;;0.10;0.10;;;15.70;99.90;;;16.03;100.00;99287.63;4955592;28;20244;-79
2023/05/24 09:45:45;;;;;;;0.10;0.10;;;15.60;99.90;;;15.77;100.00;99227.13;4946185;28;20590;-80
2023/05/24 09:48:18;;;;;;;0.10;0.10;;;16.00;99.90;;;16.16;100.00;99288.97;4956417;28;20304;-81
2023/05/24 09:53:33;;;;;;;0.10;0.10;;;16.00;99.90;;;16.44;100.00;99223.13;4962164;23;20236;-79
2023/05/24 09:56:03;;;;;;;0.10;0.10;;;16.70;99.90;;;17.03;100.00;99304.81;4942016;28;20334;-79
2023/05/24 09:58:32;;;;;;;0.05;0.05;;;16.60;99.90;;;16.91;100.00;99167.25;4973100;28;20263;-79
2023/05/24 10:01:10;;;;;;;0.10;0.10;;;16.90;99.90;;;17.02;100.00;99164.19;4941401;28;20256;-83
2023/05/24 10:03:37;;;;;;;0.20;0.20;;;;;;;17.16;100.00;99225.97;4950849;28;20230;-84
2023/05/24 10:06:10;;;;;;;0.10;0.10;;;;;;;17.05;100.00;99237.03;4952579;28;20321;-83
2023/05/24 10:08:40;;;;;;;0.10;0.10;;;16.60;99.90;;;16.93;100.00;99138.69;4953739;28;20234;-83
2023/05/24 10:11:08;;;;;;;0.00;0.00;;;;;;;16.73;100.00;99157.22;4949416;28;20237;-82
2023/05/24 10:13:36;;;;;;;0.10;0.10;;;;;;;17.00;100.00;99211.44;4949020;28;20242;-86
2023/05/24 10:16:03;;;;;;;0.10;0.10;;;;;;;16.43;100.00;99108.44;4952358;28;20241;-84
2023/05/24 10:18:31;;;;;;;0.10;0.10;;;;;;;15.81;100.00;99015.53;4955060;28;20229;-85
2023/05/24 10:21:00;;;;;;;0.10;0.10;;;;;;;15.22;100.00;98906.50;4948718;28;20238;-83
2023/05/24 10:23:31;;;;;;;0.17;0.17;;;15.30;99.90;;;15.57;100.00;98902.59;4951595;28;20293;-81
2023/05/24 10:26:12;;;;;;;0.03;0.03;;;15.90;99.90;;;16.59;100.00;99037.56;4960797;28;20276;-81
2023/05/24 10:28:45;;;;;;;0.10;0.10;;;16.60;99.90;;;17.00;100.00;99158.88;4957811;28;20233;-80
2023/05/24 10:31:14;;;;;;;0.00;0.00;;;;;;;16.93;100.00;99233.03;4959038;28;20305;-82
2023/05/24 10:33:44;;;;;;;0.10;0.10;;;16.70;99.90;;;16.88;100.00;99212.72;4944380;29;20262;-79
2023/05/24 10:36:13;;;;;;;0.10;0.10;;;17.10;99.90;;;17.41;100.00;99225.91;4954924;28;20304;-80
2023/05/24 10:38:40;;;;;;;0.03;0.03;;;;;;;17.60;100.00;99225.16;4967860;28;20237;-80
2023/05/24 10:41:08;;;;;;;0.10;0.10;;;;;;;17.28;100.00;99161.38;4963781;28;20249;-81
2023/05/24 10:43:36;;;;;;;0.10;0.10;;;;;;;16.99;100.00;99076.16;4949883;28;20238;-80
2023/05/24 10:46:07;;;;;;;0.10;0.10;;;17.30;99.90;;;17.37;100.00;99155.69;4958311;28;20237;-81
2023/05/24 10:48:39;;;;;;;0.00;0.00;;;17.10;99.90;;;17.13;100.00;99034.63;4955732;28;20245;-82
2023/05/24 10:51:35;;;;;;;0.20;0.20;;;17.20;99.40;;;17.37;100.00;98957.94;4958881;28;20226;-84
2023/05/24 10:54:17;;;;;;;0.00;0.00;;;16.80;98.60;;;16.87;97.53;98807.81;4950974;28;20229;-83
2023/05/24 10:56:48;;;;;;;0.10;0.10;;;17.10;99.80;;;17.36;98.82;98910.78;4952012;28;20233;-83
2023/05/24 10:59:38;;;;;;;0.10;0.10;;;17.60;99.90;;;17.89;100.00;99057.34;4950001;28;20233;-83
2023/05/24 11:02:11;;;;;;;0.05;0.05;;;17.60;99.90;;;17.88;100.00;99063.63;4948779;28;20256;-83
2023/05/24 11:04:45;;;;;;;0.30;0.30;;;17.60;99.90;;;17.87;100.00;98981.69;4948152;28;20234;-83
2023/05/24 11:07:14;;;;;;;0.10;0.10;;;17.90;99.90;;;18.33;100.00;99148.25;4951275;28;20233;-78
2023/05/24 11:09:45;;;;;;;0.00;0.00;;;;;;;18.47;100.00;99132.47;4953439;28;20241;-80
2023/05/24 11:12:17;;;;;;;0.10;0.10;;;18.20;99.90;;;18.07;100.00;99035.16;4950392;28;20594;-79
2023/05/24 11:14:50;;;;;;;0.00;0.00;;;18.10;99.90;;;18.22;100.00;99066.63;4952921;28;20245;-80